createdAt,value
2022-10-05T00:00:16.615Z,8.70
2022-10-05T00:02:44.039Z,8.70
2022-10-05T00:05:17.726Z,8.70
2022-10-05T00:07:44.668Z,8.70
2022-10-05T00:10:14.489Z,8.70
2022-10-05T00:12:43.940Z,8.80
2022-10-05T00:15:12.056Z,9.00
2022-10-05T00:17:39.099Z,8.80
2022-10-05T00:20:16.814Z,8.70
2022-10-05T00:22:43.735Z,8.80
2022-10-05T00:25:21.279Z,8.90
2022-10-05T00:27:58.577Z,8.80
2022-10-05T00:30:27.224Z,8.50
2022-10-05T00:32:59.353Z,8.40
2022-10-05T00:35:29.334Z,8.30
2022-10-05T00:37:56.400Z,8.30
2022-10-05T00:40:26.384Z,8.20
2022-10-05T00:43:00.716Z,8.20
2022-10-05T00:45:31.324Z,8.30
2022-10-05T00:48:07.498Z,8.10
2022-10-05T00:50:34.447Z,8.10
2022-10-05T00:53:04.393Z,8.10
2022-10-05T00:55:53.735Z,8.10
2022-10-05T00:58:23.491Z,8.20
2022-10-05T01:01:09.205Z,8.20
2022-10-05T01:03:54.685Z,8.30
2022-10-05T01:06:25.455Z,8.20
2022-10-05T01:08:57.207Z,8.10
2022-10-05T01:11:27.191Z,8.00
2022-10-05T01:14:05.468Z,7.90
2022-10-05T01:16:38.674Z,7.90
2022-10-05T01:19:23.895Z,8.00
2022-10-05T01:21:53.738Z,7.90
2022-10-05T01:24:38.940Z,7.80
2022-10-05T01:27:13.766Z,7.90
2022-10-05T01:29:41.996Z,7.80
2022-10-05T01:32:18.110Z,7.80
2022-10-05T01:34:59.687Z,7.80
2022-10-05T01:37:26.666Z,7.90
2022-10-05T01:39:59.211Z,7.80
2022-10-05T01:42:35.175Z,7.80
2022-10-05T01:45:02.044Z,7.80
2022-10-05T01:47:35.380Z,7.90
2022-10-05T01:50:13.056Z,7.90
2022-10-05T01:52:42.945Z,7.80
2022-10-05T01:55:22.848Z,7.80
2022-10-05T01:58:09.557Z,7.90
2022-10-05T02:00:51.878Z,7.80
2022-10-05T02:03:21.112Z,7.80
2022-10-05T02:05:55.602Z,7.90
2022-10-05T02:08:26.779Z,7.70
2022-10-05T02:11:06.266Z,7.70
2022-10-05T02:13:44.092Z,7.60
2022-10-05T02:16:21.184Z,7.70
2022-10-05T02:18:56.810Z,7.70
2022-10-05T02:21:24.693Z,7.50
2022-10-05T02:23:54.215Z,7.40
2022-10-05T02:26:22.544Z,7.40
2022-10-05T02:28:54.703Z,7.40
2022-10-05T02:31:37.365Z,7.40
2022-10-05T02:34:25.124Z,7.40
2022-10-05T02:37:16.007Z,7.60
2022-10-05T02:40:02.234Z,7.50
2022-10-05T02:42:32.457Z,7.50
2022-10-05T02:45:11.582Z,7.50
2022-10-05T02:47:59.151Z,7.30
2022-10-05T02:50:59.284Z,7.40
2022-10-05T02:53:33.419Z,7.30
2022-10-05T02:56:26.694Z,7.20
2022-10-05T02:59:00.017Z,7.20
2022-10-05T03:01:37.823Z,7.20
2022-10-05T03:04:16.739Z,7.30
2022-10-05T03:06:58.128Z,7.20
2022-10-05T03:09:28.543Z,7.10
2022-10-05T03:12:03.615Z,7.20
2022-10-05T03:14:37.703Z,7.30
2022-10-05T03:17:17.450Z,7.30
2022-10-05T03:19:45.572Z,7.30
2022-10-05T03:22:33.510Z,7.30
2022-10-05T03:25:03.805Z,7.40
2022-10-05T03:27:45.988Z,7.30
2022-10-05T03:30:16.001Z,7.30
2022-10-05T03:33:10.040Z,7.30
2022-10-05T03:35:51.357Z,7.20
2022-10-05T03:38:25.420Z,7.00
2022-10-05T03:41:13.429Z,7.00
2022-10-05T03:43:40.336Z,6.90
2022-10-05T03:46:16.666Z,6.80
2022-10-05T03:48:54.886Z,6.80
2022-10-05T03:51:25.187Z,6.90
2022-10-05T03:54:15.147Z,6.90
2022-10-05T03:56:48.739Z,6.90
2022-10-05T03:59:21.795Z,6.70
2022-10-05T04:01:48.760Z,6.80
2022-10-05T04:04:22.999Z,6.80
2022-10-05T04:06:51.444Z,6.90
2022-10-05T04:09:22.997Z,6.80
2022-10-05T04:11:52.997Z,6.90
2022-10-05T04:14:41.514Z,6.80
2022-10-05T04:17:13.619Z,6.80
2022-10-05T04:19:46.035Z,6.90
2022-10-05T04:22:36.856Z,6.90
2022-10-05T04:25:03.903Z,6.90
2022-10-05T04:27:39.316Z,6.80
2022-10-05T04:30:16.164Z,6.80
2022-10-05T04:32:44.904Z,6.90
2022-10-05T04:35:35.596Z,7.00
2022-10-05T04:38:12.320Z,6.90
2022-10-05T04:41:04.952Z,6.80
2022-10-05T04:43:32.206Z,6.80
2022-10-05T04:46:15.882Z,6.70
2022-10-05T04:48:44.743Z,6.80
2022-10-05T04:51:51.168Z,6.70
2022-10-05T04:54:31.900Z,6.60
2022-10-05T04:57:00.092Z,6.80
2022-10-05T04:59:27.735Z,6.90
2022-10-05T05:01:54.624Z,6.80
2022-10-05T05:04:36.083Z,6.90
2022-10-05T05:07:23.772Z,6.70
2022-10-05T05:10:12.362Z,6.70
2022-10-05T05:12:50.960Z,6.80
2022-10-05T05:15:24.139Z,6.70
2022-10-05T05:18:01.919Z,6.60
2022-10-05T05:20:40.988Z,6.80
2022-10-05T05:23:08.270Z,6.60
2022-10-05T05:25:36.267Z,6.60
2022-10-05T05:28:05.903Z,6.60
2022-10-05T05:30:40.783Z,6.60
2022-10-05T05:33:27.421Z,6.50
2022-10-05T05:36:07.474Z,6.70
2022-10-05T05:38:36.876Z,6.60
2022-10-05T05:41:10.260Z,6.80
2022-10-05T05:43:58.404Z,6.90
2022-10-05T05:47:03.058Z,6.90
2022-10-05T05:49:41.914Z,7.10
2022-10-05T05:52:12.164Z,7.30
2022-10-05T05:54:42.562Z,7.40
2022-10-05T05:57:12.590Z,7.40
2022-10-05T05:59:48.842Z,7.50
2022-10-05T06:02:21.543Z,7.60
2022-10-05T06:05:01.225Z,7.70
2022-10-05T06:07:30.813Z,7.70
2022-10-05T06:10:06.340Z,7.80
2022-10-05T06:12:41.481Z,7.80
2022-10-05T06:15:31.798Z,8.00
2022-10-05T06:18:02.836Z,8.00
2022-10-05T06:20:42.615Z,8.00
2022-10-05T06:23:18.288Z,8.00
2022-10-05T06:26:08.272Z,8.20
2022-10-05T06:28:37.886Z,8.30
2022-10-05T06:31:18.443Z,8.50
2022-10-05T06:33:50.835Z,8.60
2022-10-05T06:36:40.086Z,8.70
2022-10-05T06:39:07.245Z,8.80
2022-10-05T06:41:53.246Z,9.00
2022-10-05T06:44:30.441Z,8.90
2022-10-05T06:47:26.696Z,8.90
2022-10-05T06:50:36.059Z,9.00
2022-10-05T06:54:04.173Z,9.00
2022-10-05T06:56:48.894Z,9.10
2022-10-05T06:59:33.226Z,9.20
2022-10-05T07:02:10.502Z,9.40
2022-10-05T07:04:44.387Z,9.40
2022-10-05T07:07:29.803Z,9.40
2022-10-05T07:10:07.618Z,9.30
2022-10-05T07:12:34.893Z,9.30
2022-10-05T07:15:14.615Z,9.50
2022-10-05T07:18:05.065Z,10.10
2022-10-05T07:20:35.175Z,10.50
2022-10-05T07:23:02.911Z,11.20
2022-10-05T07:25:40.717Z,11.60
2022-10-05T07:28:27.914Z,12.30
2022-10-05T07:30:58.457Z,12.80
2022-10-05T07:33:26.308Z,12.80
2022-10-05T07:36:11.868Z,13.10
2022-10-05T07:38:45.239Z,13.20
2022-10-05T07:41:12.190Z,14.30
2022-10-05T07:44:02.115Z,15.10
2022-10-05T07:46:36.745Z,15.50
2022-10-05T07:49:21.636Z,16.00
2022-10-05T07:51:52.843Z,16.40
2022-10-05T07:54:29.707Z,16.70
2022-10-05T07:56:59.785Z,16.70
2022-10-05T07:59:26.558Z,17.00
2022-10-05T08:01:57.091Z,17.50
2022-10-05T08:04:28.582Z,17.90
2022-10-05T08:07:04.556Z,18.30
2022-10-05T08:09:52.117Z,18.40
2022-10-05T08:12:22.476Z,18.20
2022-10-05T08:15:08.935Z,18.10
2022-10-05T08:17:39.815Z,19.50
2022-10-05T08:20:16.491Z,19.10
2022-10-05T08:22:47.313Z,19.20
2022-10-05T08:25:19.807Z,20.20
2022-10-05T08:28:07.011Z,21.40
2022-10-05T08:30:35.939Z,21.00
2022-10-05T08:33:14.719Z,22.00
2022-10-05T08:36:06.119Z,21.20
2022-10-05T08:38:33.694Z,22.50
2022-10-05T08:41:00.440Z,22.10
2022-10-05T08:43:35.507Z,22.20
2022-10-05T08:46:21.354Z,21.60
2022-10-05T08:48:54.152Z,21.70
2022-10-05T08:51:21.286Z,22.10
2022-10-05T08:54:06.655Z,21.70
2022-10-05T08:56:53.357Z,20.80
2022-10-05T08:59:20.232Z,20.00
2022-10-05T09:01:50.443Z,20.00
2022-10-05T09:04:24.043Z,21.00
2022-10-05T09:06:56.787Z,20.70
2022-10-05T09:09:36.111Z,21.10
2022-10-05T09:12:23.225Z,22.00
2022-10-05T09:15:26.637Z,22.70
2022-10-05T09:17:53.711Z,22.40
2022-10-05T09:20:30.959Z,23.10
2022-10-05T09:23:09.035Z,22.40
2022-10-05T09:25:45.166Z,23.30
2022-10-05T09:28:22.384Z,22.90
2022-10-05T09:31:08.217Z,23.00
2022-10-05T09:33:51.876Z,23.30
2022-10-05T09:36:27.948Z,24.80
2022-10-05T09:38:54.748Z,24.40
2022-10-05T09:41:36.942Z,24.70
2022-10-05T09:44:16.252Z,26.30
2022-10-05T09:47:02.078Z,25.80
2022-10-05T09:49:28.964Z,24.50
2022-10-05T09:52:18.975Z,25.00
2022-10-05T09:55:01.356Z,24.80
2022-10-05T09:57:28.253Z,25.50
2022-10-05T10:00:01.107Z,24.20
2022-10-05T10:02:28.012Z,24.60
2022-10-05T10:05:06.659Z,25.50
2022-10-05T10:07:46.656Z,25.20
2022-10-05T10:10:29.044Z,25.50
2022-10-05T10:13:12.992Z,26.30
2022-10-05T10:16:06.320Z,26.40
2022-10-05T10:18:56.547Z,25.50
2022-10-05T10:21:42.385Z,26.60
2022-10-05T10:24:28.687Z,25.70
2022-10-05T10:26:58.623Z,27.00
2022-10-05T10:29:28.437Z,25.70
2022-10-05T10:32:10.563Z,26.90
2022-10-05T10:34:37.871Z,26.20
2022-10-05T10:37:11.047Z,25.10
2022-10-05T10:39:37.992Z,26.00
2022-10-05T10:42:14.628Z,25.40
2022-10-05T10:45:07.855Z,26.20
2022-10-05T10:47:38.360Z,25.90
2022-10-05T10:50:24.279Z,26.50
2022-10-05T10:52:57.446Z,25.90
2022-10-05T10:55:36.815Z,26.60
2022-10-05T10:58:06.699Z,28.00
2022-10-05T11:00:33.570Z,27.80
2022-10-05T11:03:09.957Z,27.60
2022-10-05T11:05:55.398Z,27.90
2022-10-05T11:08:41.015Z,28.80
2022-10-05T11:11:07.913Z,29.60
2022-10-05T11:13:53.651Z,29.30
2022-10-05T11:16:26.476Z,29.90
2022-10-05T11:19:12.361Z,29.70
2022-10-05T11:21:48.526Z,28.80
2022-10-05T11:24:38.717Z,28.40
2022-10-05T11:27:05.653Z,29.50
2022-10-05T11:29:59.329Z,29.60
2022-10-05T11:32:32.307Z,29.00
2022-10-05T11:35:17.493Z,28.70
2022-10-05T11:38:10.500Z,27.50
2022-10-05T11:40:40.201Z,28.00
2022-10-05T11:43:22.022Z,28.50
2022-10-05T11:45:51.652Z,29.40
2022-10-05T11:48:20.298Z,29.40
2022-10-05T11:51:07.423Z,29.90
2022-10-05T11:53:39.959Z,30.80
2022-10-05T11:56:12.773Z,30.60
2022-10-05T11:58:45.855Z,30.30
2022-10-05T12:01:17.840Z,29.10
2022-10-05T12:04:04.149Z,30.20
2022-10-05T12:06:31.067Z,30.80
2022-10-05T12:08:57.926Z,29.50
2022-10-05T12:11:57.650Z,29.90
2022-10-05T12:14:28.020Z,29.40
2022-10-05T12:16:59.993Z,30.10
2022-10-05T12:19:31.667Z,31.20
2022-10-05T12:22:04.060Z,30.80
2022-10-05T12:24:37.081Z,30.60
2022-10-05T12:27:13.146Z,29.40
2022-10-05T12:29:48.839Z,29.80
2022-10-05T12:32:34.070Z,30.20
2022-10-05T12:35:43.627Z,30.50
2022-10-05T12:38:12.667Z,30.80
2022-10-05T12:40:47.861Z,31.20
2022-10-05T12:43:33.495Z,31.10
2022-10-05T12:46:00.405Z,31.80
2022-10-05T12:48:52.575Z,31.30
2022-10-05T12:51:31.976Z,32.00
2022-10-05T12:53:58.901Z,31.20
2022-10-05T12:56:34.623Z,32.40
2022-10-05T12:59:08.091Z,32.90
2022-10-05T13:01:43.616Z,33.90
2022-10-05T13:04:29.888Z,31.90
2022-10-05T13:07:15.655Z,32.90
2022-10-05T13:09:48.099Z,33.50
2022-10-05T13:12:35.973Z,35.20
2022-10-05T13:15:15.333Z,34.20
2022-10-05T13:17:47.475Z,31.80
2022-10-05T13:20:17.908Z,32.30
2022-10-05T13:22:48.630Z,33.30
2022-10-05T13:25:22.740Z,34.80
2022-10-05T13:28:12.860Z,36.20
2022-10-05T13:30:41.039Z,36.60
2022-10-05T13:33:24.640Z,36.00
2022-10-05T13:36:27.383Z,36.60
2022-10-05T13:38:57.491Z,36.30
2022-10-05T13:41:27.140Z,35.00
2022-10-05T13:44:12.500Z,36.40
2022-10-05T13:46:49.658Z,36.60
2022-10-05T13:49:32.592Z,35.50
2022-10-05T13:52:08.870Z,34.40
2022-10-05T13:54:55.919Z,36.70
2022-10-05T13:57:22.848Z,37.60
2022-10-05T13:59:58.297Z,36.60
2022-10-05T14:02:38.431Z,37.70
2022-10-05T14:05:24.712Z,36.70
2022-10-05T14:07:54.739Z,36.90
2022-10-05T14:10:37.577Z,37.80
2022-10-05T14:13:23.379Z,37.30
2022-10-05T14:16:08.041Z,34.70
2022-10-05T14:18:37.183Z,35.80
2022-10-05T14:21:13.744Z,35.20
2022-10-05T14:23:40.940Z,35.70
2022-10-05T14:26:17.892Z,35.00
2022-10-05T14:28:56.639Z,34.40
2022-10-05T14:31:28.552Z,34.40
2022-10-05T14:33:55.741Z,34.90
2022-10-05T14:36:40.266Z,34.10
2022-10-05T14:39:11.650Z,34.20
2022-10-05T14:41:42.433Z,33.60
2022-10-05T14:44:09.325Z,32.70
2022-10-05T14:46:36.717Z,33.50
2022-10-05T14:49:20.428Z,33.20
2022-10-05T14:51:47.768Z,33.30
2022-10-05T14:54:24.034Z,32.70
2022-10-05T14:57:10.028Z,32.70
2022-10-05T14:59:50.446Z,32.20
2022-10-05T15:02:42.352Z,31.00
2022-10-05T15:05:24.824Z,30.10
2022-10-05T15:07:52.393Z,28.60
2022-10-05T15:10:34.765Z,28.20
2022-10-05T15:13:20.326Z,28.00
2022-10-05T15:16:06.293Z,27.20
2022-10-05T15:18:39.848Z,26.50
2022-10-05T15:21:26.752Z,26.20
2022-10-05T15:23:57.493Z,25.70
2022-10-05T15:26:24.423Z,25.60
2022-10-05T15:28:59.193Z,25.20
2022-10-05T15:31:49.550Z,25.00
2022-10-05T15:34:39.012Z,24.90
2022-10-05T15:37:09.140Z,25.00
2022-10-05T15:39:40.501Z,25.30
2022-10-05T15:42:11.713Z,25.30
2022-10-05T15:44:57.512Z,25.40
2022-10-05T15:47:39.602Z,25.50
2022-10-05T15:50:06.492Z,25.80
2022-10-05T15:52:39.289Z,25.60
2022-10-05T15:55:09.287Z,25.20
2022-10-05T15:57:45.518Z,24.70
2022-10-05T16:00:17.245Z,24.40
2022-10-05T16:03:09.659Z,23.90
2022-10-05T16:05:55.165Z,23.50
2022-10-05T16:08:55.559Z,23.10
2022-10-05T16:11:31.469Z,23.00
2022-10-05T16:14:18.888Z,22.60
2022-10-05T16:17:09.461Z,22.50
2022-10-05T16:19:36.420Z,22.20
2022-10-05T16:22:07.756Z,21.90
2022-10-05T16:24:53.445Z,21.90
2022-10-05T16:27:31.907Z,21.70
2022-10-05T16:30:03.009Z,21.50
2022-10-05T16:32:49.968Z,21.40
2022-10-05T16:35:23.837Z,21.30
2022-10-05T16:38:12.815Z,21.10
2022-10-05T16:40:44.091Z,21.00
2022-10-05T16:43:23.509Z,20.80
2022-10-05T16:45:59.487Z,20.50
2022-10-05T16:48:31.335Z,20.40
2022-10-05T16:51:04.086Z,20.30
2022-10-05T16:53:36.420Z,20.10
2022-10-05T16:56:06.129Z,19.90
2022-10-05T16:58:41.687Z,19.70
2022-10-05T17:01:11.991Z,19.50
2022-10-05T17:04:02.035Z,19.30
2022-10-05T17:06:44.450Z,19.10
2022-10-05T17:09:31.011Z,18.90
2022-10-05T17:12:16.222Z,18.90
2022-10-05T17:14:52.347Z,18.70
2022-10-05T17:17:38.324Z,18.50
2022-10-05T17:20:26.964Z,18.50
2022-10-05T17:23:18.524Z,18.10
2022-10-05T17:25:54.183Z,17.90
2022-10-05T17:28:38.500Z,17.50
2022-10-05T17:31:13.386Z,17.20
2022-10-05T17:33:59.337Z,17.00
2022-10-05T17:36:40.339Z,16.90
2022-10-05T17:39:13.639Z,16.50
2022-10-05T17:41:40.551Z,16.50
2022-10-05T17:44:10.172Z,16.50
2022-10-05T17:46:45.689Z,16.40
2022-10-05T17:49:21.501Z,16.30
2022-10-05T17:52:06.902Z,16.00
2022-10-05T17:55:09.158Z,15.80
2022-10-05T17:57:37.004Z,15.80
2022-10-05T18:00:05.773Z,15.80
2022-10-05T18:02:42.913Z,15.70
2022-10-05T18:05:14.325Z,15.50
2022-10-05T18:07:42.261Z,15.60
2022-10-05T18:10:12.259Z,15.80
2022-10-05T18:12:41.497Z,15.40
2022-10-05T18:15:08.263Z,15.20
2022-10-05T18:17:46.437Z,15.10
2022-10-05T18:20:17.995Z,15.30
2022-10-05T18:22:46.757Z,15.20
2022-10-05T18:25:32.244Z,15.30
2022-10-05T18:28:03.957Z,15.10
2022-10-05T18:30:37.183Z,15.10
2022-10-05T18:33:17.903Z,15.00
2022-10-05T18:35:44.700Z,14.90
2022-10-05T18:38:17.603Z,14.90
2022-10-05T18:40:47.500Z,14.70
2022-10-05T18:43:29.102Z,14.60
2022-10-05T18:45:56.000Z,14.70
2022-10-05T18:48:41.507Z,14.60
2022-10-05T18:51:11.164Z,14.60
2022-10-05T18:53:54.672Z,14.70
2022-10-05T18:56:21.557Z,14.60
2022-10-05T18:59:03.987Z,14.40
2022-10-05T19:01:36.750Z,14.30
2022-10-05T19:04:22.746Z,14.20
2022-10-05T19:06:58.957Z,14.40
2022-10-05T19:09:45.246Z,14.20
2022-10-05T19:12:20.356Z,14.20
2022-10-05T19:14:47.196Z,14.30
2022-10-05T19:17:14.021Z,14.10
2022-10-05T19:19:47.268Z,13.90
2022-10-05T19:22:25.130Z,13.90
2022-10-05T19:25:10.489Z,13.90
2022-10-05T19:27:44.539Z,13.80
2022-10-05T19:30:22.119Z,13.80
2022-10-05T19:32:55.278Z,13.80
2022-10-05T19:35:28.209Z,13.90
2022-10-05T19:38:15.661Z,13.90
2022-10-05T19:40:51.767Z,13.80
2022-10-05T19:43:25.555Z,13.80
2022-10-05T19:45:58.679Z,13.70
2022-10-05T19:48:31.897Z,13.70
2022-10-05T19:51:00.156Z,13.90
2022-10-05T19:53:30.370Z,13.60
2022-10-05T19:56:10.243Z,13.60
2022-10-05T19:58:39.619Z,13.60
2022-10-05T20:01:06.954Z,13.50
2022-10-05T20:03:35.415Z,13.60
2022-10-05T20:06:04.290Z,13.60
2022-10-05T20:08:39.400Z,13.70
2022-10-05T20:11:06.286Z,13.70
2022-10-05T20:13:35.185Z,13.60
2022-10-05T20:16:27.039Z,13.50
2022-10-05T20:19:12.569Z,13.40
2022-10-05T20:22:01.784Z,13.40
2022-10-05T20:24:30.395Z,13.20
2022-10-05T20:27:06.402Z,13.20
2022-10-05T20:29:37.316Z,13.00
2022-10-05T20:32:22.612Z,12.80
2022-10-05T20:34:51.245Z,12.90
2022-10-05T20:37:18.748Z,12.90
2022-10-05T20:39:47.422Z,12.80
2022-10-05T20:42:14.415Z,12.80
2022-10-05T20:44:41.458Z,12.80
2022-10-05T20:47:09.897Z,12.80
2022-10-05T20:49:37.887Z,12.80
2022-10-05T20:52:05.529Z,12.60
2022-10-05T20:54:32.452Z,12.70
2022-10-05T20:56:59.438Z,12.70
2022-10-05T20:59:26.290Z,12.70
2022-10-05T21:01:53.118Z,12.70
2022-10-05T21:04:21.733Z,12.50
2022-10-05T21:06:55.898Z,12.60
2022-10-05T21:09:22.983Z,12.60
2022-10-05T21:11:50.245Z,12.60
2022-10-05T21:14:17.275Z,12.60
2022-10-05T21:16:45.866Z,12.50
2022-10-05T21:19:13.767Z,12.50
2022-10-05T21:21:41.732Z,12.40
2022-10-05T21:24:08.792Z,12.30
2022-10-05T21:26:37.189Z,12.40
2022-10-05T21:29:07.815Z,12.30
2022-10-05T21:31:37.301Z,12.30
2022-10-05T21:34:04.609Z,12.40
2022-10-05T21:36:32.570Z,12.40
2022-10-05T21:38:59.617Z,12.40
2022-10-05T21:41:26.856Z,12.20
2022-10-05T21:43:53.898Z,12.20
2022-10-05T21:46:22.814Z,12.30
2022-10-05T21:48:49.883Z,12.20
2022-10-05T21:51:18.956Z,12.20
2022-10-05T21:53:48.825Z,12.30
2022-10-05T21:56:17.293Z,12.30
2022-10-05T21:58:44.782Z,12.20
2022-10-05T22:01:11.607Z,12.20
2022-10-05T22:03:38.464Z,12.20
2022-10-05T22:06:05.625Z,12.40
2022-10-05T22:08:33.523Z,12.30
2022-10-05T22:11:01.195Z,12.30
2022-10-05T22:13:39.339Z,12.40
2022-10-05T22:16:06.250Z,12.40
2022-10-05T22:18:33.051Z,12.40
2022-10-05T22:20:59.913Z,12.50
2022-10-05T22:23:26.760Z,12.60
2022-10-05T22:25:53.784Z,12.40
2022-10-05T22:28:20.673Z,12.50
2022-10-05T22:30:47.682Z,12.40
2022-10-05T22:33:14.532Z,12.30
2022-10-05T22:35:41.453Z,12.30
2022-10-05T22:38:08.407Z,12.30
2022-10-05T22:40:36.104Z,12.20
2022-10-05T22:43:02.965Z,12.00
2022-10-05T22:45:32.563Z,12.10
2022-10-05T22:47:59.772Z,12.30
2022-10-05T22:50:26.780Z,12.00
2022-10-05T22:52:53.640Z,11.90
2022-10-05T22:55:20.729Z,11.80
2022-10-05T22:57:49.191Z,12.00
2022-10-05T23:00:16.190Z,12.10
2022-10-05T23:02:43.686Z,12.20
2022-10-05T23:05:13.321Z,12.00
2022-10-05T23:07:41.963Z,11.90
2022-10-05T23:10:09.824Z,12.00
2022-10-05T23:12:36.816Z,12.10
2022-10-05T23:15:04.154Z,12.00
2022-10-05T23:17:33.538Z,12.00
2022-10-05T23:20:00.483Z,12.10
2022-10-05T23:22:27.371Z,12.00
2022-10-05T23:24:54.307Z,12.00
2022-10-05T23:27:21.084Z,11.90
2022-10-05T23:29:47.895Z,11.80
2022-10-05T23:32:14.738Z,11.80
2022-10-05T23:34:41.735Z,11.90
2022-10-05T23:37:08.778Z,12.00
2022-10-05T23:39:35.613Z,12.00
2022-10-05T23:42:02.390Z,12.00
2022-10-05T23:44:29.348Z,12.10
2022-10-05T23:46:56.189Z,12.10
2022-10-05T23:49:23.307Z,12.20
2022-10-05T23:51:50.308Z,12.20
2022-10-05T23:54:17.071Z,12.20
2022-10-05T23:56:43.844Z,12.40
2022-10-05T23:59:10.656Z,12.30
